createdAt,value
2018-12-14T00:00:06.434Z,12.03
2018-12-14T00:02:33.853Z,11.03
2018-12-14T00:05:01.289Z,10.07
2018-12-14T00:07:28.712Z,12.90
2018-12-14T00:09:56.191Z,11.27
2018-12-14T00:12:23.660Z,10.20
2018-12-14T00:14:51.234Z,11.80
2018-12-14T00:17:18.641Z,10.10
2018-12-14T00:19:46.076Z,10.80
2018-12-14T00:22:13.489Z,10.40
2018-12-14T00:24:40.888Z,11.10
2018-12-14T00:27:08.426Z,11.20
2018-12-14T00:29:38.275Z,10.83
2018-12-14T00:32:05.817Z,10.70
2018-12-14T00:34:33.242Z,11.00
2018-12-14T00:37:00.652Z,11.23
2018-12-14T00:39:28.068Z,11.37
2018-12-14T00:41:55.516Z,10.77
2018-12-14T00:44:22.939Z,11.50
2018-12-14T00:46:50.331Z,10.73
2018-12-14T00:52:16.083Z,10.80
2018-12-14T00:54:43.490Z,11.20
2018-12-14T00:57:10.964Z,10.97
2018-12-14T00:59:38.383Z,10.67
2018-12-14T01:02:10.406Z,11.03
2018-12-14T01:04:37.825Z,10.27
2018-12-14T01:07:05.238Z,10.80
2018-12-14T01:09:32.768Z,12.13
2018-12-14T01:12:00.193Z,11.00
2018-12-14T01:14:27.682Z,11.33
2018-12-14T01:16:55.112Z,11.50
2018-12-14T01:19:22.537Z,11.57
2018-12-14T01:21:49.978Z,11.60
2018-12-14T01:24:17.370Z,12.70
2018-12-14T01:26:44.761Z,11.57
2018-12-14T01:29:12.190Z,11.23
2018-12-14T01:31:39.588Z,11.27
2018-12-14T01:34:06.990Z,11.03
2018-12-14T01:36:34.402Z,12.43
2018-12-14T01:39:02.559Z,11.17
2018-12-14T01:41:30.002Z,11.83
2018-12-14T01:43:57.349Z,10.87
2018-12-14T01:46:24.769Z,12.47
2018-12-14T01:48:52.193Z,12.07
2018-12-14T01:51:19.644Z,11.57
2018-12-14T01:56:45.406Z,11.63
2018-12-14T01:59:12.759Z,11.77
2018-12-14T02:01:40.144Z,11.27
2018-12-14T02:04:07.541Z,10.63
2018-12-14T02:06:35.033Z,10.97
2018-12-14T02:09:04.065Z,11.73
2018-12-14T02:11:31.599Z,11.23
2018-12-14T02:13:59.147Z,10.20
2018-12-14T02:16:26.688Z,12.27
2018-12-14T02:18:54.146Z,10.70
2018-12-14T02:21:21.546Z,11.07
2018-12-14T02:23:48.935Z,11.30
2018-12-14T02:26:16.835Z,11.63
2018-12-14T02:28:44.274Z,10.40
2018-12-14T02:31:11.725Z,9.47
2018-12-14T02:33:39.110Z,11.23
2018-12-14T02:36:06.629Z,9.87
2018-12-14T02:38:34.059Z,9.83
2018-12-14T02:41:01.433Z,10.70
2018-12-14T02:43:28.846Z,11.10
2018-12-14T02:45:56.243Z,9.53
2018-12-14T02:48:23.666Z,9.30
2018-12-14T02:50:51.178Z,9.60
2018-12-14T02:53:18.580Z,10.50
2018-12-14T02:55:46.029Z,9.53
2018-12-14T02:58:13.422Z,11.07
2018-12-14T03:00:40.817Z,9.83
2018-12-14T03:03:08.254Z,11.37
2018-12-14T03:05:35.656Z,10.03
2018-12-14T03:08:03.358Z,9.93
2018-12-14T03:10:30.869Z,10.17
2018-12-14T03:12:58.318Z,10.57
2018-12-14T03:15:25.763Z,10.17
2018-12-14T03:17:53.256Z,10.13
2018-12-14T03:20:20.661Z,10.50
2018-12-14T03:22:48.082Z,10.17
2018-12-14T03:25:15.477Z,8.97
2018-12-14T03:27:42.997Z,10.20
2018-12-14T03:30:10.564Z,9.47
2018-12-14T03:32:38.061Z,8.90
2018-12-14T03:35:05.738Z,8.90
2018-12-14T03:37:33.205Z,9.43
2018-12-14T03:40:00.595Z,9.77
2018-12-14T03:42:34.251Z,9.53
2018-12-14T03:44:57.544Z,9.27
2018-12-14T03:47:25.111Z,10.27
2018-12-14T03:49:52.534Z,8.93
2018-12-14T03:52:19.935Z,9.03
2018-12-14T03:54:47.370Z,9.30
2018-12-14T03:57:14.775Z,10.00
2018-12-14T03:59:42.244Z,9.43
2018-12-14T04:02:09.782Z,8.80
2018-12-14T04:04:37.232Z,9.40
2018-12-14T04:07:04.570Z,9.30
2018-12-14T04:09:31.966Z,8.33
2018-12-14T04:11:59.386Z,9.53
2018-12-14T04:14:26.826Z,8.50
2018-12-14T04:16:54.304Z,8.47
2018-12-14T04:19:21.828Z,8.77
2018-12-14T04:21:49.248Z,9.67
2018-12-14T04:24:16.784Z,8.80
2018-12-14T04:26:44.206Z,9.40
2018-12-14T04:29:11.625Z,8.80
2018-12-14T04:31:40.067Z,9.53
2018-12-14T04:34:07.539Z,9.57
2018-12-14T04:36:35.101Z,10.03
2018-12-14T04:39:04.249Z,9.80
2018-12-14T04:41:31.718Z,9.63
2018-12-14T04:43:59.243Z,10.50
2018-12-14T04:46:26.742Z,9.23
2018-12-14T04:48:54.166Z,10.17
2018-12-14T04:51:21.602Z,8.47
2018-12-14T04:53:49.196Z,9.80
2018-12-14T04:56:16.613Z,8.27
2018-12-14T04:58:44.009Z,9.50
2018-12-14T05:01:11.424Z,8.37
2018-12-14T05:03:38.865Z,9.43
2018-12-14T05:06:06.310Z,9.27
2018-12-14T05:08:33.807Z,9.80
2018-12-14T05:11:01.225Z,9.70
2018-12-14T05:13:28.739Z,10.23
2018-12-14T05:15:56.154Z,9.97
2018-12-14T05:18:23.588Z,9.63
2018-12-14T05:20:50.999Z,11.27
2018-12-14T05:23:18.453Z,9.97
2018-12-14T05:25:45.854Z,10.10
2018-12-14T05:28:13.331Z,10.47
2018-12-14T05:30:40.765Z,8.57
2018-12-14T05:33:08.261Z,10.60
2018-12-14T05:35:35.653Z,9.77
2018-12-14T05:38:03.038Z,11.07
2018-12-14T05:40:30.424Z,10.17
2018-12-14T05:43:02.487Z,11.30
2018-12-14T05:45:27.272Z,16.87
2018-12-14T05:47:55.245Z,15.37
2018-12-14T05:50:22.767Z,12.53
2018-12-14T05:52:50.155Z,12.87
2018-12-14T05:55:17.571Z,12.60
2018-12-14T05:57:45.001Z,12.63
2018-12-14T06:00:12.998Z,11.03
2018-12-14T06:02:40.530Z,11.50
2018-12-14T06:05:08.122Z,11.07
2018-12-14T06:07:35.722Z,10.63
2018-12-14T06:10:04.047Z,12.37
2018-12-14T06:12:31.738Z,10.73
2018-12-14T06:14:59.193Z,17.03
2018-12-14T06:17:27.289Z,14.47
2018-12-14T06:19:54.750Z,15.13
2018-12-14T06:22:22.193Z,13.57
2018-12-14T06:24:49.627Z,10.80
2018-12-14T06:27:17.366Z,10.83
2018-12-14T06:29:45.240Z,10.83
2018-12-14T06:32:13.073Z,11.63
2018-12-14T06:34:40.558Z,12.40
2018-12-14T06:37:08.395Z,9.77
2018-12-14T06:39:35.866Z,10.83
2018-12-14T06:42:03.629Z,11.27
2018-12-14T06:44:31.110Z,11.13
2018-12-14T06:46:58.736Z,11.10
2018-12-14T06:49:26.170Z,10.93
2018-12-14T06:51:53.601Z,10.87
2018-12-14T06:54:22.159Z,11.40
2018-12-14T06:56:49.650Z,11.80
2018-12-14T06:59:17.258Z,20.63
2018-12-14T07:01:44.893Z,23.90
2018-12-14T07:04:12.402Z,11.17
2018-12-14T07:06:40.363Z,11.40
2018-12-14T07:09:07.974Z,10.93
2018-12-14T07:11:38.678Z,11.47
2018-12-14T07:14:06.644Z,11.07
2018-12-14T07:16:34.138Z,11.40
2018-12-14T07:19:01.574Z,12.53
2018-12-14T07:21:28.998Z,11.73
2018-12-14T07:23:56.410Z,11.70
2018-12-14T07:26:23.824Z,11.60
2018-12-14T07:28:52.126Z,10.97
2018-12-14T07:31:19.683Z,11.60
2018-12-14T07:33:47.114Z,11.23
2018-12-14T07:36:14.898Z,10.80
2018-12-14T07:38:47.998Z,10.53
2018-12-14T07:41:11.682Z,11.33
2018-12-14T07:43:39.178Z,10.97
2018-12-14T07:46:06.587Z,11.97
2018-12-14T07:48:34.946Z,11.87
2018-12-14T07:51:02.402Z,11.37
2018-12-14T07:53:29.802Z,11.07
2018-12-14T07:55:57.254Z,12.33
2018-12-14T07:58:24.783Z,10.77
2018-12-14T08:00:52.172Z,11.30
2018-12-14T08:03:19.670Z,10.70
2018-12-14T08:05:47.074Z,9.70
2018-12-14T08:08:14.626Z,10.03
2018-12-14T08:10:42.028Z,11.13
2018-12-14T08:13:09.584Z,11.40
2018-12-14T08:15:37.186Z,11.47
2018-12-14T08:18:04.589Z,11.77
2018-12-14T08:20:32.038Z,12.60
2018-12-14T08:22:59.558Z,11.50
2018-12-14T08:25:27.067Z,20.87
2018-12-14T08:27:54.557Z,21.00
2018-12-14T08:30:21.960Z,13.13
2018-12-14T08:32:49.455Z,12.23
2018-12-14T08:35:16.849Z,18.40
2018-12-14T08:37:44.478Z,12.60
2018-12-14T08:40:11.862Z,11.97
2018-12-14T08:42:39.305Z,11.20
2018-12-14T08:45:06.850Z,11.57
2018-12-14T08:47:34.335Z,10.73
2018-12-14T08:50:01.875Z,11.53
2018-12-14T08:52:29.370Z,11.67
2018-12-14T08:57:51.658Z,12.97
2018-12-14T09:00:19.074Z,12.90
2018-12-14T09:02:46.465Z,11.83
2018-12-14T09:05:13.869Z,10.87
2018-12-14T09:07:41.297Z,11.10
2018-12-14T09:10:08.857Z,11.27
2018-12-14T09:12:36.302Z,13.60
2018-12-14T09:15:03.986Z,12.17
2018-12-14T09:17:31.416Z,11.27
2018-12-14T09:19:59.074Z,12.43
2018-12-14T09:22:26.469Z,11.40
2018-12-14T09:24:53.995Z,12.33
2018-12-14T09:27:21.423Z,11.00
2018-12-14T09:29:48.870Z,11.27
2018-12-14T09:32:16.276Z,12.13
2018-12-14T09:34:43.826Z,11.40
2018-12-14T09:37:11.236Z,11.67
2018-12-14T09:39:38.693Z,11.00
2018-12-14T09:42:06.106Z,12.00
2018-12-14T09:44:33.505Z,11.30
2018-12-14T09:47:00.918Z,12.10
2018-12-14T09:49:28.366Z,12.03
2018-12-14T09:51:55.826Z,11.07
2018-12-14T09:54:23.242Z,12.13
2018-12-14T09:56:50.665Z,11.37
2018-12-14T09:59:18.069Z,13.70
2018-12-14T10:01:45.546Z,10.67
2018-12-14T10:04:13.159Z,12.53
2018-12-14T10:06:40.810Z,12.83
2018-12-14T10:09:08.353Z,11.83
2018-12-14T10:11:35.806Z,12.17
2018-12-14T10:14:03.446Z,12.57
2018-12-14T10:16:30.837Z,11.47
2018-12-14T10:18:58.399Z,12.07
2018-12-14T10:21:25.850Z,12.47
2018-12-14T10:23:53.397Z,13.43
2018-12-14T10:26:20.833Z,12.30
2018-12-14T10:28:48.288Z,12.07
2018-12-14T10:31:15.717Z,10.83
2018-12-14T10:33:43.129Z,11.33
2018-12-14T10:36:10.578Z,10.80
2018-12-14T10:38:38.024Z,11.47
2018-12-14T10:41:05.547Z,11.80
2018-12-14T10:43:33.029Z,12.27
2018-12-14T10:46:00.543Z,10.90
2018-12-14T10:48:28.077Z,11.57
2018-12-14T10:50:55.994Z,12.13
2018-12-14T10:53:23.406Z,11.30
2018-12-14T10:55:50.854Z,11.63
2018-12-14T10:58:18.290Z,10.73
2018-12-14T11:00:51.374Z,10.97
2018-12-14T11:03:18.778Z,11.77
2018-12-14T11:05:46.202Z,11.37
2018-12-14T11:08:13.640Z,11.53
2018-12-14T11:10:41.082Z,11.27
2018-12-14T11:13:08.500Z,10.50
2018-12-14T11:15:35.960Z,10.70
2018-12-14T11:18:03.378Z,11.60
2018-12-14T11:20:30.794Z,11.83
2018-12-14T11:22:58.245Z,11.33
2018-12-14T11:25:25.674Z,12.20
2018-12-14T11:27:53.061Z,10.97
2018-12-14T11:30:20.531Z,10.90
2018-12-14T11:32:47.929Z,11.40
2018-12-14T11:35:15.347Z,11.50
2018-12-14T11:37:42.931Z,11.87
2018-12-14T11:40:10.366Z,10.60
2018-12-14T11:42:37.860Z,10.93
2018-12-14T11:45:07.434Z,10.47
2018-12-14T11:47:34.872Z,10.23
2018-12-14T11:50:02.418Z,10.97
2018-12-14T11:52:29.841Z,10.00
2018-12-14T11:54:57.234Z,10.40
2018-12-14T11:57:24.646Z,10.30
2018-12-14T11:59:52.126Z,11.80
2018-12-14T12:02:19.544Z,9.97
2018-12-14T12:04:46.981Z,9.20
2018-12-14T12:07:14.427Z,9.97
2018-12-14T12:09:41.901Z,11.57
2018-12-14T12:12:09.358Z,10.30
2018-12-14T12:14:36.777Z,12.53
2018-12-14T12:17:04.214Z,10.90
2018-12-14T12:19:31.635Z,11.97
2018-12-14T12:21:59.299Z,10.87
2018-12-14T12:24:26.696Z,11.07
2018-12-14T12:26:54.126Z,10.70
2018-12-14T12:29:21.623Z,10.53
2018-12-14T12:31:49.010Z,11.33
2018-12-14T12:34:16.433Z,10.97
2018-12-14T12:36:43.863Z,11.73
2018-12-14T12:39:11.269Z,10.93
2018-12-14T12:41:38.672Z,11.17
2018-12-14T12:44:06.095Z,10.93
2018-12-14T12:46:33.522Z,11.33
2018-12-14T12:49:00.942Z,10.27
2018-12-14T12:51:28.606Z,10.37
2018-12-14T12:53:56.092Z,12.20
2018-12-14T12:56:23.838Z,11.30
2018-12-14T12:58:51.281Z,11.83
2018-12-14T13:01:18.735Z,11.20
2018-12-14T13:03:46.312Z,10.20
2018-12-14T13:06:13.712Z,11.00
2018-12-14T13:08:41.177Z,11.83
2018-12-14T13:11:08.674Z,11.40
2018-12-14T13:13:36.102Z,11.20
2018-12-14T13:16:03.546Z,11.40
2018-12-14T13:18:30.966Z,11.33
2018-12-14T13:20:58.395Z,10.90
2018-12-14T13:23:25.850Z,11.33
2018-12-14T13:25:53.429Z,11.70
2018-12-14T13:28:21.189Z,10.23
2018-12-14T13:30:48.923Z,11.63
2018-12-14T13:33:16.365Z,12.03
2018-12-14T13:35:43.898Z,11.40
2018-12-14T13:38:11.332Z,10.30
2018-12-14T13:40:38.750Z,11.93
2018-12-14T13:43:06.146Z,10.80
2018-12-14T13:45:33.590Z,10.70
2018-12-14T13:48:00.993Z,10.23
2018-12-14T13:50:28.397Z,9.80
2018-12-14T13:52:55.826Z,11.53
2018-12-14T13:55:23.542Z,13.20
2018-12-14T13:57:50.974Z,12.40
2018-12-14T14:00:18.377Z,11.23
2018-12-14T14:02:45.945Z,10.73
2018-12-14T14:05:13.354Z,10.73
2018-12-14T14:07:40.765Z,9.87
2018-12-14T14:10:08.310Z,14.13
2018-12-14T14:12:35.814Z,12.43
2018-12-14T14:15:03.714Z,10.97
2018-12-14T14:17:31.129Z,12.33
2018-12-14T14:19:58.584Z,10.70
2018-12-14T14:22:26.113Z,12.90
2018-12-14T14:24:53.513Z,10.80
2018-12-14T14:27:20.948Z,11.33
2018-12-14T14:29:48.338Z,15.07
2018-12-14T14:32:16.165Z,12.17
2018-12-14T14:34:46.102Z,11.23
2018-12-14T14:37:13.587Z,11.23
2018-12-14T14:39:41.068Z,10.93
2018-12-14T14:42:08.525Z,13.30
2018-12-14T14:44:35.915Z,12.57
2018-12-14T14:47:03.366Z,12.97
2018-12-14T14:49:30.815Z,12.37
2018-12-14T14:51:58.298Z,13.43
2018-12-14T14:54:25.778Z,13.20
2018-12-14T14:56:53.166Z,13.10
2018-12-14T14:59:20.559Z,13.33
2018-12-14T15:01:48.059Z,12.10
2018-12-14T15:04:15.930Z,11.50
2018-12-14T15:06:43.591Z,12.20
2018-12-14T15:09:11.262Z,13.17
2018-12-14T15:11:38.678Z,12.37
2018-12-14T15:14:06.285Z,11.60
2018-12-14T15:16:33.703Z,11.90
2018-12-14T15:19:01.134Z,12.43
2018-12-14T15:21:28.603Z,11.93
2018-12-14T15:23:56.041Z,12.20
2018-12-14T15:26:23.621Z,12.03
2018-12-14T15:28:51.103Z,12.70
2018-12-14T15:31:18.568Z,20.33
2018-12-14T15:33:46.018Z,19.70
2018-12-14T15:36:13.503Z,17.33
2018-12-14T15:38:40.893Z,15.80
2018-12-14T15:41:08.355Z,18.07
2018-12-14T15:46:01.072Z,13.27
2018-12-14T15:48:28.555Z,11.93
2018-12-14T15:50:56.019Z,12.83
2018-12-14T15:53:23.419Z,12.43
2018-12-14T15:55:50.884Z,11.97
2018-12-14T15:58:18.296Z,11.43
2018-12-14T16:00:46.047Z,10.80
2018-12-14T16:03:13.481Z,11.97
2018-12-14T16:05:40.906Z,11.83
2018-12-14T16:08:08.380Z,11.13
2018-12-14T16:10:35.897Z,12.00
2018-12-14T16:13:03.375Z,13.30
2018-12-14T16:15:31.450Z,12.97
2018-12-14T16:17:59.123Z,22.70
2018-12-14T16:20:26.651Z,17.30
2018-12-14T16:22:55.017Z,13.00
2018-12-14T16:25:23.093Z,13.40
2018-12-14T16:27:50.543Z,12.77
2018-12-14T16:30:17.973Z,12.47
2018-12-14T16:35:29.478Z,15.57
2018-12-14T16:37:57.074Z,15.30
2018-12-14T16:40:24.704Z,12.47
2018-12-14T16:42:52.113Z,12.30
2018-12-14T16:45:26.297Z,11.27
2018-12-14T16:47:49.396Z,12.03
2018-12-14T16:50:16.842Z,12.67
2018-12-14T16:52:44.268Z,12.87
2018-12-14T16:55:11.723Z,12.90
2018-12-14T16:57:39.194Z,12.23
2018-12-14T17:00:08.119Z,11.00
2018-12-14T17:02:35.538Z,11.70
2018-12-14T17:05:03.532Z,13.23
2018-12-14T17:07:30.971Z,14.10
2018-12-14T17:09:58.370Z,13.80
2018-12-14T17:12:26.196Z,13.37
2018-12-14T17:14:53.761Z,12.70
2018-12-14T17:17:21.245Z,12.07
2018-12-14T17:19:48.671Z,13.00
2018-12-14T17:22:16.097Z,12.57
2018-12-14T17:24:43.622Z,12.20
2018-12-14T17:29:38.114Z,13.53
2018-12-14T17:32:05.526Z,11.47
2018-12-14T17:34:33.011Z,12.37
2018-12-14T17:37:00.548Z,12.63
2018-12-14T17:39:27.953Z,12.93
2018-12-14T17:41:55.382Z,10.53
2018-12-14T17:44:22.889Z,14.43
2018-12-14T17:46:50.838Z,12.37
2018-12-14T17:49:18.785Z,13.97
2018-12-14T17:51:46.466Z,12.60
2018-12-14T17:54:14.222Z,12.07
2018-12-14T17:56:42.823Z,11.17
2018-12-14T17:59:10.381Z,11.83
2018-12-14T18:01:51.969Z,11.60
2018-12-14T18:04:19.512Z,12.97
2018-12-14T18:06:47.114Z,12.13
2018-12-14T18:09:15.023Z,12.70
2018-12-14T18:11:42.698Z,12.70
2018-12-14T18:16:36.913Z,12.43
2018-12-14T18:19:04.381Z,12.67
2018-12-14T18:21:31.945Z,12.70
2018-12-14T18:23:59.452Z,10.90
2018-12-14T18:26:26.912Z,11.90
2018-12-14T18:28:54.403Z,13.17
2018-12-14T18:31:21.910Z,13.77
2018-12-14T18:33:49.444Z,13.50
2018-12-14T18:36:16.840Z,11.93
2018-12-14T18:38:44.314Z,13.50
2018-12-14T18:41:11.794Z,12.83
2018-12-14T18:43:39.209Z,12.10
2018-12-14T18:46:06.564Z,13.13
2018-12-14T18:48:34.069Z,12.87
2018-12-14T18:51:02.367Z,13.40
2018-12-14T18:53:29.878Z,12.73
2018-12-14T18:55:57.251Z,13.67
2018-12-14T18:58:24.666Z,12.00
2018-12-14T19:00:52.041Z,12.20
2018-12-14T19:03:19.516Z,13.23
2018-12-14T19:05:47.001Z,14.80
2018-12-14T19:08:14.510Z,14.70
2018-12-14T19:10:42.035Z,15.50
2018-12-14T19:13:09.520Z,14.50
2018-12-14T19:15:36.950Z,14.30
2018-12-14T19:18:04.541Z,13.93
2018-12-14T19:20:31.992Z,14.40
2018-12-14T19:23:01.469Z,13.97
2018-12-14T19:25:29.094Z,13.63
2018-12-14T19:27:56.514Z,15.63
2018-12-14T19:30:23.946Z,13.67
2018-12-14T19:32:51.444Z,15.53
2018-12-14T19:35:18.867Z,13.73
2018-12-14T19:43:17.301Z,14.33
2018-12-14T19:45:44.682Z,15.50
2018-12-14T19:48:12.249Z,14.40
2018-12-14T19:50:39.657Z,15.17
2018-12-14T19:53:07.056Z,14.60
2018-12-14T19:55:34.588Z,14.93
2018-12-14T19:58:01.991Z,14.93
2018-12-14T20:00:29.452Z,12.93
2018-12-14T20:02:56.927Z,14.83
2018-12-14T20:05:24.501Z,14.37
2018-12-14T20:07:52.058Z,13.53
2018-12-14T20:10:19.498Z,13.47
2018-12-14T20:12:46.909Z,13.10
2018-12-14T20:15:14.342Z,13.23
2018-12-14T20:17:41.824Z,13.60
2018-12-14T20:23:07.266Z,14.40
2018-12-14T20:25:34.689Z,13.03
2018-12-14T20:28:02.356Z,12.00
2018-12-14T20:30:29.796Z,14.37
2018-12-14T20:32:57.229Z,12.00
2018-12-14T20:35:24.828Z,12.20
2018-12-14T20:37:52.597Z,12.37
2018-12-14T20:40:20.050Z,15.53
2018-12-14T20:42:47.649Z,14.90
2018-12-14T20:45:15.126Z,15.40
2018-12-14T20:47:42.667Z,15.70
2018-12-14T20:50:10.182Z,15.97
2018-12-14T20:52:37.637Z,16.10
2018-12-14T20:55:07.422Z,14.80
2018-12-14T20:57:34.899Z,23.40
2018-12-14T21:00:02.578Z,20.00
2018-12-14T21:02:30.031Z,16.67
2018-12-14T21:04:57.510Z,18.10
2018-12-14T21:07:24.966Z,15.87
2018-12-14T21:09:52.379Z,15.93
2018-12-14T21:12:19.819Z,15.23
2018-12-14T21:14:50.735Z,16.00
2018-12-14T21:17:16.884Z,16.17
2018-12-14T21:19:44.390Z,15.40
2018-12-14T21:22:12.490Z,13.40
2018-12-14T21:24:40.066Z,14.63
2018-12-14T21:27:07.530Z,14.13
2018-12-14T21:29:34.910Z,14.67
2018-12-14T21:32:02.398Z,14.93
2018-12-14T21:34:29.798Z,14.67
2018-12-14T21:36:57.246Z,14.53
2018-12-14T21:39:24.665Z,15.37
2018-12-14T21:41:52.082Z,14.23
2018-12-14T21:44:19.505Z,12.93
2018-12-14T21:46:46.947Z,14.53
2018-12-14T21:49:14.365Z,13.17
2018-12-14T21:51:41.793Z,13.23
2018-12-14T21:54:09.192Z,13.07
2018-12-14T21:56:36.642Z,13.53
2018-12-14T21:59:04.069Z,13.53
2018-12-14T22:01:31.473Z,14.30
2018-12-14T22:03:58.927Z,14.77
2018-12-14T22:06:26.447Z,13.80
2018-12-14T22:08:53.845Z,12.67
2018-12-14T22:11:21.290Z,14.20
2018-12-14T22:13:48.738Z,15.20
2018-12-14T22:16:16.148Z,14.43
2018-12-14T22:18:43.558Z,14.50
2018-12-14T22:21:10.975Z,13.03
2018-12-14T22:23:38.396Z,13.10
2018-12-14T22:26:05.877Z,14.20
2018-12-14T22:28:33.421Z,13.00
2018-12-14T22:31:00.854Z,13.07
2018-12-14T22:33:28.273Z,13.40
2018-12-14T22:35:56.917Z,12.17
2018-12-14T22:38:24.586Z,13.20
2018-12-14T22:40:52.028Z,14.47
2018-12-14T22:43:19.433Z,13.50
2018-12-14T22:45:46.829Z,12.07
2018-12-14T22:48:14.267Z,16.53
2018-12-14T22:50:41.697Z,15.20
2018-12-14T22:53:09.213Z,14.47
2018-12-14T22:55:37.283Z,15.47
2018-12-14T22:58:04.821Z,16.03
2018-12-14T23:00:34.525Z,16.60
2018-12-14T23:03:04.472Z,16.57
2018-12-14T23:05:31.923Z,15.03
2018-12-14T23:07:59.403Z,14.80
2018-12-14T23:10:26.842Z,14.33
2018-12-14T23:12:54.245Z,14.97
2018-12-14T23:15:21.647Z,14.13
2018-12-14T23:20:49.250Z,12.03
2018-12-14T23:23:16.705Z,13.67
2018-12-14T23:25:44.127Z,15.57
2018-12-14T23:28:11.654Z,15.50
2018-12-14T23:30:39.104Z,13.03
2018-12-14T23:33:07.377Z,14.93
2018-12-14T23:35:34.831Z,13.37
2018-12-14T23:38:02.244Z,14.10
2018-12-14T23:40:29.744Z,14.57
2018-12-14T23:42:57.175Z,14.53
2018-12-14T23:45:24.615Z,13.93
2018-12-14T23:47:52.091Z,12.30
2018-12-14T23:50:19.496Z,12.27
2018-12-14T23:52:46.929Z,14.17
2018-12-14T23:55:14.370Z,13.17
2018-12-14T23:57:41.801Z,13.53
